Observation data for Northwest San Angelo on 03/23/2019      Previous  Date  Next       Current Mesonet Observations  Soil Data  Daily Summary Page  Observations in Plain Language
KASU 230500Z 12006KT 18/10 A2999 RMK A01 T01780104  RH  064%=      5-min Rain = 0
KASU 230505Z 12006KT 18/10 A2999 RMK A01 T01780104  RH  064%=      5-min Rain = 0
KASU 230510Z 13006KT 18/10 A30 RMK A01 T01770104  RH  065%=      5-min Rain = 0
KASU 230515Z 13005KT 18/10 A30 RMK A01 T01760104  RH  065%=      5-min Rain = 0
KASU 230520Z 13005KT 18/10 A2999 RMK A01 T01760104  RH  065%=      5-min Rain = 0
KASU 230525Z 13005KT 18/10 A30 RMK A01 T01750104  RH  065%=      5-min Rain = 0
KASU 230530Z 13004KT 18/11 A30 RMK A01 T01750105  RH  065%=      5-min Rain = 0
KASU 230535Z 13004KT 18/11 A30 RMK A01 T01750105  RH  066%=      5-min Rain = 0
KASU 230540Z 13004KT 17/11 A30 RMK A01 T01740105  RH  066%=      5-min Rain = 0
KASU 230545Z 13004KT 17/11 A30 RMK A01 T01740105  RH  066%=      5-min Rain = 0
KASU 230550Z 13005KT 17/11 A30 RMK A01 T01740105  RH  066%=      5-min Rain = 0
KASU 230555Z 13004KT 17/11 A30 RMK A01 T01730105  RH  066%=      5-min Rain = 0
KASU 230600Z 11004KT 17/11 A30 RMK A01 T01730105  RH  066%=      5-min Rain = 0
KASU 230605Z 11003KT 17/11 A30 RMK A01 T01730105  RH  067%=      5-min Rain = 0
KASU 230610Z 10004KT 17/11 A30 RMK A01 T01720105  RH  067%=      5-min Rain = 0
KASU 230615Z 11004KT 17/11 A30 RMK A01 T01710105  RH  067%=      5-min Rain = 0
KASU 230620Z 11003KT 17/11 A30 RMK A01 T01710105  RH  067%=      5-min Rain = 0
KASU 230625Z 10004KT 17/11 A30 RMK A01 T01710105  RH  068%=      5-min Rain = 0
KASU 230630Z 10003KT 17/11 A30 RMK A01 T01700105  RH  068%=      5-min Rain = 0
KASU 230635Z 09004KT 17/11 A2999 RMK A01 T01700105  RH  068%=      5-min Rain = 0
KASU 230640Z 10004KT 17/11 A2999 RMK A01 T01690105  RH  068%=      5-min Rain = 0
KASU 230645Z 09003KT 17/11 A2999 RMK A01 T01680105  RH  069%=      5-min Rain = 0
KASU 230650Z 09004KT 17/11 A2999 RMK A01 T01680105  RH  069%=      5-min Rain = 0
KASU 230655Z 10002KT 17/11 A30 RMK A01 T01680106  RH  069%=      5-min Rain = 0
KASU 230700Z 10003KT 17/11 A30 RMK A01 T01670105  RH  069%=      5-min Rain = 0
KASU 230705Z 10003KT 17/11 A30 RMK A01 T01670106  RH  069%=      5-min Rain = 0
KASU 230710Z 11004KT 17/11 A30 RMK A01 T01670106  RH  069%=      5-min Rain = 0
KASU 230715Z 11004KT 17/11 A30 RMK A01 T01670106  RH  069%=      5-min Rain = 0
KASU 230720Z 10005KT 17/11 A2999 RMK A01 T01670106  RH  069%=      5-min Rain = 0
KASU 230725Z 10005KT 17/11 A2999 RMK A01 T01670106  RH  070%=      5-min Rain = 0
KASU 230730Z 09004KT 17/11 A2999 RMK A01 T01670106  RH  070%=      5-min Rain = 0
KASU 230735Z 09004KT 17/11 A2999 RMK A01 T01650106  RH  070%=      5-min Rain = 0
KASU 230740Z 09005KT 16/11 A2999 RMK A01 T01640106  RH  071%=      5-min Rain = 0
KASU 230745Z 09005KT 16/11 A2999 RMK A01 T01640106  RH  071%=      5-min Rain = 0
KASU 230750Z 09005KT 16/11 A2999 RMK A01 T01640106  RH  071%=      5-min Rain = 0
KASU 230755Z 10005KT 16/11 A2999 RMK A01 T01640107  RH  071%=      5-min Rain = 0
KASU 230800Z 09005KT 16/11 A2999 RMK A01 T01640106  RH  071%=      5-min Rain = 0
KASU 230805Z 09004KT 16/11 A2999 RMK A01 T01640107  RH  071%=      5-min Rain = 0
KASU 230810Z 09004KT 16/11 A2999 RMK A01 T01630107  RH  072%=      5-min Rain = 0
KASU 230815Z 08004KT 16/11 A2999 RMK A01 T01630107  RH  072%=      5-min Rain = 0
KASU 230820Z 08004KT 16/11 A2999 RMK A01 T01620107  RH  072%=      5-min Rain = 0
KASU 230825Z 10004KT 16/11 A2999 RMK A01 T01620107  RH  072%=      5-min Rain = 0
KASU 230830Z 10004KT 16/11 A2999 RMK A01 T01620107  RH  072%=      5-min Rain = 0
KASU 230835Z 11004KT 16/11 A2999 RMK A01 T01620107  RH  072%=      5-min Rain = 0
KASU 230840Z 11005KT 16/11 A2999 RMK A01 T01620107  RH  072%=      5-min Rain = 0
KASU 230845Z 11003KT 16/11 A30 RMK A01 T01630107  RH  072%=      5-min Rain = 0
KASU 230850Z 12004KT 16/11 A30 RMK A01 T01640108  RH  072%=      5-min Rain = 0
KASU 230855Z 13003KT 16/11 A30 RMK A01 T01630107  RH  072%=      5-min Rain = 0
KASU 230900Z 13002KT 16/11 A30 RMK A01 T01630107  RH  072%=      5-min Rain = 0
KASU 230905Z 15004KT 17/11 A30 RMK A01 T01650109  RH  072%=      5-min Rain = 0
KASU 230910Z 16004KT 17/11 A30 RMK A01 T01660109  RH  072%=      5-min Rain = 0
KASU 230915Z 14004KT 17/11 A30 RMK A01 T01660109  RH  072%=      5-min Rain = 0
KASU 230920Z 15003KT 17/11 A30 RMK A01 T01660109  RH  072%=      5-min Rain = 0
KASU 230925Z 14004KT 16/11 A2999 RMK A01 T01640109  RH  072%=      5-min Rain = 0
KASU 230930Z 14004KT 16/11 A2999 RMK A01 T01640109  RH  072%=      5-min Rain = 0
KASU 230935Z 14004KT 16/11 A2999 RMK A01 T01640109  RH  072%=      5-min Rain = 0
KASU 230940Z 15003KT 17/11 A2999 RMK A01 T01650110  RH  073%=      5-min Rain = 0
KASU 230945Z 16005KT 17/11 A2999 RMK A01 T01650112  RH  073%=      5-min Rain = 0
KASU 230950Z 15005KT 16/11 A2998 RMK A01 T01640112  RH  074%=      5-min Rain = 0
KASU 230955Z 15005KT 16/11 A2998 RMK A01 T01630112  RH  074%=      5-min Rain = 0
KASU 231000Z 16004KT 16/11 A2998 RMK A01 T01620113  RH  075%=      5-min Rain = 0
KASU 231005Z 14003KT 16/11 A2998 RMK A01 T01600112  RH  076%=      5-min Rain = 0
KASU 231010Z 15003KT 16/11 A2998 RMK A01 T01600112  RH  076%=      5-min Rain = 0
KASU 231015Z 15004KT 16/11 A2998 RMK A01 T01590112  RH  076%=      5-min Rain = 0
KASU 231020Z 15005KT 16/11 A2998 RMK A01 T01590113  RH  077%=      5-min Rain = 0
KASU 231025Z 15005KT 16/11 A2998 RMK A01 T01580113  RH  077%=      5-min Rain = 0
KASU 231030Z 15006KT 16/11 A2998 RMK A01 T01550111  RH  078%=      5-min Rain = 0
KASU 231035Z 15006KT 15/11 A2998 RMK A01 T01520110  RH  079%=      5-min Rain = 0
KASU 231040Z 15007KT 15/11 A2998 RMK A01 T01520111  RH  079%=      5-min Rain = 0
KASU 231045Z 15006KT 15/11 A2998 RMK A01 T01510110  RH  080%=      5-min Rain = 0
KASU 231050Z 15005KT 15/11 A2998 RMK A01 T01510111  RH  080%=      5-min Rain = 0
KASU 231055Z 15006KT 15/11 A2998 RMK A01 T01490110  RH  081%=      5-min Rain = 0
KASU 231100Z 15005KT 15/11 A2998 RMK A01 T01490111  RH  081%=      5-min Rain = 0
KASU 231105Z 15005KT 15/11 A2998 RMK A01 T01480110  RH  081%=      5-min Rain = 0
KASU 231110Z 14005KT 15/11 A2998 RMK A01 T01470110  RH  081%=      5-min Rain = 0
KASU 231115Z 14005KT 15/11 A2997 RMK A01 T01460109  RH  081%=      5-min Rain = 0
KASU 231120Z 14004KT 15/11 A2997 RMK A01 T01450108  RH  081%=      5-min Rain = 0
KASU 231125Z 13004KT 14/11 A2997 RMK A01 T01430107  RH  082%=      5-min Rain = 0
KASU 231130Z 13003KT 14/11 A2998 RMK A01 T01430107  RH  082%=      5-min Rain = 0
KASU 231135Z 13003KT 14/11 A2998 RMK A01 T01420107  RH  082%=      5-min Rain = 0
KASU 231140Z 12002KT 14/11 A2998 RMK A01 T01430108  RH  083%=      5-min Rain = 0
KASU 231145Z 12002KT 14/11 A2998 RMK A01 T01420107  RH  082%=      5-min Rain = 0
KASU 231150Z 12002KT 14/11 A2999 RMK A01 T01410106  RH  082%=      5-min Rain = 0
KASU 231155Z 11002KT 14/11 A2999 RMK A01 T01390105  RH  083%=      5-min Rain = 0
KASU 231200Z 11003KT 14/11 A2999 RMK A01 T01380106  RH  084%=      5-min Rain = 0
KASU 231205Z 12002KT 14/11 A2999 RMK A01 T01390108  RH  084%=      5-min Rain = 0
KASU 231210Z 12001KT 14/11 A2999 RMK A01 T01370106  RH  085%=      5-min Rain = 0
KASU 231215Z 12001KT 13/10 A2999 RMK A01 T01330103  RH  085%=      5-min Rain = 0
KASU 231220Z 13002KT 13/10 A2999 RMK A01 T01310103  RH  086%=      5-min Rain = 0
KASU 231225Z 14002KT 13/11 A2999 RMK A01 T01340107  RH  087%=      5-min Rain = 0
KASU 231230Z 14002KT 13/11 A2999 RMK A01 T01340108  RH  087%=      5-min Rain = 0
KASU 231235Z 13002KT 13/11 A30 RMK A01 T01340109  RH  088%=      5-min Rain = 0
KASU 231240Z 13002KT 13/11 A30 RMK A01 T01340109  RH  088%=      5-min Rain = 0
KASU 231245Z 12001KT 13/11 A30 RMK A01 T01310106  RH  088%=      5-min Rain = 0
KASU 231250Z 12000KT 13/11 A30 RMK A01 T01310107  RH  088%=      5-min Rain = 0
KASU 231255Z 13001KT 13/11 A30 RMK A01 T01310107  RH  089%=      5-min Rain = 0
KASU 231300Z 16001KT 13/11 A30 RMK A01 T01320109  RH  089%=      5-min Rain = 0
KASU 231305Z 18001KT 13/11 A30 RMK A01 T01340112  RH  089%=      5-min Rain = 0
KASU 231310Z 19002KT 14/11 A3001 RMK A01 T01360114  RH  089%=      5-min Rain = 0
KASU 231315Z 20002KT 14/12 A3001 RMK A01 T01380116  RH  090%=      5-min Rain = 0
KASU 231320Z 21001KT 14/12 A3001 RMK A01 T01390116  RH  089%=      5-min Rain = 0
KASU 231325Z 21001KT 14/12 A3001 RMK A01 T01400117  RH  089%=      5-min Rain = 0
KASU 231330Z 19001KT 14/12 A3001 RMK A01 T01430120  RH  089%=      5-min Rain = 0
KASU 231335Z 19001KT 15/12 A3001 RMK A01 T01480123  RH  089%=      5-min Rain = 0
KASU 231340Z 18001KT 15/12 A3001 RMK A01 T01520124  RH  087%=      5-min Rain = 0
KASU 231345Z 18001KT 16/13 A3001 RMK A01 T01560125  RH  085%=      5-min Rain = 0
KASU 231350Z 18002KT 16/12 A3001 RMK A01 T01580124  RH  083%=      5-min Rain = 0
KASU 231355Z 18003KT 16/12 A3002 RMK A01 T01600124  RH  082%=      5-min Rain = 0
KASU 231400Z 18002KT 16/12 A3002 RMK A01 T01620124  RH  081%=      5-min Rain = 0
KASU 231405Z 18003KT 16/12 A3002 RMK A01 T01630124  RH  081%=      5-min Rain = 0
KASU 231410Z 19003KT 17/13 A3002 RMK A01 T01650125  RH  080%=      5-min Rain = 0
KASU 231415Z 20004G9KT 17/13 A3002 RMK A01 T01700128  RH  079%=      5-min Rain = 0
KASU 231420Z 20006G11KT 17/13 A3003 RMK A01 T01740128  RH  077%=      5-min Rain = 0
KASU 231425Z 20006KT 18/13 A3003 RMK A01 T01770128  RH  076%=      5-min Rain = 0
KASU 231430Z 20008KT 18/13 A3003 RMK A01 T01800129  RH  075%=      5-min Rain = 0
KASU 231435Z 20008KT 18/13 A3003 RMK A01 T01830129  RH  074%=      5-min Rain = 0
KASU 231440Z 21009KT 19/13 A3004 RMK A01 T01860129  RH  072%=      5-min Rain = 0
KASU 231445Z 21010KT 19/13 A3004 RMK A01 T01860128  RH  072%=      5-min Rain = 0
KASU 231450Z 21009KT 19/13 A3004 RMK A01 T01890129  RH  071%=      5-min Rain = 0
KASU 231455Z 22010G16KT 19/13 A3004 RMK A01 T01880127  RH  070%=      5-min Rain = 0
KASU 231500Z 22010G15KT 19/13 A3004 RMK A01 T01910127  RH  069%=      5-min Rain = 0
KASU 231505Z 22010G16KT 19/13 A3004 RMK A01 T01940127  RH  068%=      5-min Rain = 0
KASU 231510Z 21010KT 20/13 A3004 RMK A01 T01960126  RH  066%=      5-min Rain = 0
KASU 231515Z 21011KT 20/13 A3004 RMK A01 T01980126  RH  066%=      5-min Rain = 0
KASU 231520Z 21011G16KT 20/12 A3004 RMK A01 T01980123  RH  064%=      5-min Rain = 0
KASU 231525Z 21010KT 20/12 A3004 RMK A01 T01960122  RH  065%=      5-min Rain = 0
KASU 231530Z 22009G15KT 20/12 A3004 RMK A01 T02010123  RH  063%=      5-min Rain = 0
KASU 231535Z 23012KT 20/12 A3004 RMK A01 T02020121  RH  062%=      5-min Rain = 0
KASU 231540Z 22010KT 20/12 A3004 RMK A01 T02030121  RH  062%=      5-min Rain = 0
KASU 231545Z 22009KT 21/12 A3004 RMK A01 T02060122  RH  061%=      5-min Rain = 0
KASU 231550Z 21009KT 21/12 A3004 RMK A01 T02070121  RH  060%=      5-min Rain = 0
KASU 231555Z 24009G14KT 21/12 A3004 RMK A01 T02060119  RH  059%=      5-min Rain = 0
KASU 231600Z 22010G15KT 21/12 A3004 RMK A01 T02090120  RH  059%=      5-min Rain = 0
KASU 231605Z 23010G15KT 21/12 A3004 RMK A01 T02110118  RH  057%=      5-min Rain = 0
KASU 231610Z 23011KT 21/12 A3004 RMK A01 T02110117  RH  057%=      5-min Rain = 0
KASU 231615Z 24010KT 21/12 A3004 RMK A01 T02140115  RH  055%=      5-min Rain = 0
KASU 231620Z 22009KT 22/12 A3004 RMK A01 T02160119  RH  056%=      5-min Rain = 0
KASU 231625Z 23010KT 22/11 A3004 RMK A01 T02180113  RH  053%=      5-min Rain = 0
KASU 231630Z 24009G15KT 22/10 A3004 RMK A01 T02160101  RH  049%=      5-min Rain = 0
KASU 231635Z 24009G14KT 22/10 A3004 RMK A01 T02180103  RH  050%=      5-min Rain = 0
KASU 231640Z 23009KT 22/11 A3004 RMK A01 T02220105  RH  049%=      5-min Rain = 0
KASU 231645Z 24008G14KT 22/10 A3004 RMK A01 T02230102  RH  048%=      5-min Rain = 0
KASU 231650Z 26008KT 22/09 A3004 RMK A01 T02220092  RH  045%=      5-min Rain = 0
KASU 231655Z 25007KT 22/09 A3004 RMK A01 T02220089  RH  044%=      5-min Rain = 0
KASU 231700Z 24009KT 23/10 A3004 RMK A01 T02260097  RH  045%=      5-min Rain = 0
KASU 231705Z 24009KT 23/10 A3004 RMK A01 T02250095  RH  045%=      5-min Rain = 0
KASU 231710Z 24007G13KT 22/10 A3004 RMK A01 T02240096  RH  045%=      5-min Rain = 0
KASU 231715Z 23007KT 23/10 A3004 RMK A01 T02260098  RH  046%=      5-min Rain = 0
KASU 231720Z 21008KT 23/10 A3004 RMK A01 T02270095  RH  044%=      5-min Rain = 0
KASU 231725Z 24007G14KT 23/09 A3003 RMK A01 T02300088  RH  042%=      5-min Rain = 0
KASU 231730Z 25007KT 23/09 A3003 RMK A01 T02300091  RH  043%=      5-min Rain = 0
KASU 231735Z 24008KT 23/09 A3003 RMK A01 T02280091  RH  043%=      5-min Rain = 0
KASU 231740Z 23007G12KT 23/09 A3003 RMK A01 T02290087  RH  042%=      5-min Rain = 0
KASU 231745Z 24006KT 23/08 A3003 RMK A01 T02300083  RH  040%=      5-min Rain = 0
KASU 231750Z 24008G13KT 24/09 A3002 RMK A01 T02360086  RH  039%=      5-min Rain = 0
KASU 231755Z 24008KT 24/09 A3002 RMK A01 T02350085  RH  040%=      5-min Rain = 0
KASU 231800Z 25007G12KT 24/09 A3002 RMK A01 T02370089  RH  040%=      5-min Rain = 0
KASU 231805Z 22008G13KT 24/08 A3002 RMK A01 T02380083  RH  038%=      5-min Rain = 0
KASU 231810Z 24008KT 24/08 A3002 RMK A01 T02400079  RH  037%=      5-min Rain = 0
KASU 231815Z 24010KT 24/08 A3002 RMK A01 T02410076  RH  036%=      5-min Rain = 0
KASU 231820Z 24009G14KT 24/08 A3001 RMK A01 T02390075  RH  036%=      5-min Rain = 0
KASU 231825Z 23009KT 24/08 A3001 RMK A01 T02430076  RH  035%=      5-min Rain = 0
KASU 231830Z 22010G15KT 24/08 A3001 RMK A01 T02440075  RH  035%=      5-min Rain = 0
KASU 231835Z 22008KT 24/07 A3001 RMK A01 T02440074  RH  035%=      5-min Rain = 0
KASU 231840Z 26007G14KT 25/07 A30 RMK A01 T02450073  RH  034%=      5-min Rain = 0
KASU 231845Z 26008G15KT 25/07 A30 RMK A01 T02450070  RH  033%=      5-min Rain = 0
KASU 231850Z 24012G17KT 25/07 A30 RMK A01 T02480065  RH  032%=      5-min Rain = 0
KASU 231855Z 24010G15KT 25/06 A30 RMK A01 T02480063  RH  031%=      5-min Rain = 0
KASU 231900Z 22009G16KT 25/06 A30 RMK A01 T02520063  RH  031%=      5-min Rain = 0
KASU 231905Z 22012G18KT 25/05 A2999 RMK A01 T02540050  RH  028%=      5-min Rain = 0
KASU 231910Z 23012G18KT 25/04 A2999 RMK A01 T02520036  RH  025%=      5-min Rain = 0
KASU 231915Z 24008G14KT 25/05 A2999 RMK A01 T02540051  RH  028%=      5-min Rain = 0
KASU 231920Z 24010G15KT 26/04 A2999 RMK A01 T02560044  RH  026%=      5-min Rain = 0
KASU 231925Z 25010G16KT 25/03 A2998 RMK A01 T02540031  RH  024%=      5-min Rain = 0
KASU 231930Z 25010KT 26/00 A2998 RMK A01 T02560003  RH  019%=      5-min Rain = 0
KASU 231935Z 26012KT 26/01 A2998 RMK A01 T02560011  RH  020%=      5-min Rain = 0
KASU 231940Z 26008G13KT 26/01 A2998 RMK A01 T02570010  RH  020%=      5-min Rain = 0
KASU 231945Z 25012G18KT 26/00 A2997 RMK A01 T025800-0  RH  019%=      5-min Rain = 0
KASU 231950Z 25009G15KT 26/01 A2997 RMK A01 T02580010  RH  020%=      5-min Rain = 0
KASU 231955Z 24011KT 26/01 A2997 RMK A01 T02580012  RH  020%=      5-min Rain = 0
KASU 232000Z 25010G17KT 26/01 A2997 RMK A01 T02570012  RH  020%=      5-min Rain = 0
KASU 232005Z 24009G14KT 26/00 A2997 RMK A01 T02570000  RH  019%=      5-min Rain = 0
KASU 232010Z 27009KT 26/M01 A2997 RMK A01 T02571011  RH  017%=      5-min Rain = 0
KASU 232015Z 26007KT 26/01 A2997 RMK A01 T02580010  RH  020%=      5-min Rain = 0
KASU 232020Z 25009KT 26/01 A2996 RMK A01 T02600008  RH  019%=      5-min Rain = 0
KASU 232025Z 24009KT 26/01 A2996 RMK A01 T02550009  RH  020%=      5-min Rain = 0
KASU 232030Z 24009KT 25/M01 A2996 RMK A01 T02541005  RH  018%=      5-min Rain = 0
KASU 232035Z 23011KT 26/M01 A2996 RMK A01 T02591011  RH  017%=      5-min Rain = 0
KASU 232040Z 22011G16KT 26/M02 A2996 RMK A01 T02581020  RH  016%=      5-min Rain = 0
KASU 232045Z 24009G15KT 26/M01 A2996 RMK A01 T02601010  RH  017%=      5-min Rain = 0
KASU 232050Z 23009G15KT 26/M02 A2996 RMK A01 T02611018  RH  016%=      5-min Rain = 0
KASU 232055Z 23009G15KT 26/M02 A2995 RMK A01 T02601020  RH  016%=      5-min Rain = 0
KASU 232100Z 25009G14KT 26/M00 A2995 RMK A01 T02621004  RH  018%=      5-min Rain = 0
KASU 232105Z 25008G13KT 26/00 A2995 RMK A01 T026400-0  RH  018%=      5-min Rain = 0
KASU 232110Z 27008KT 26/M01 A2995 RMK A01 T02641008  RH  017%=      5-min Rain = 0
KASU 232115Z 27006G12KT 27/M01 A2995 RMK A01 T02671008  RH  017%=      5-min Rain = 0
KASU 232120Z 29012KT 26/M02 A2995 RMK A01 T02631015  RH  016%=      5-min Rain = 0
KASU 232125Z 27007KT 26/M02 A2995 RMK A01 T02591016  RH  016%=      5-min Rain = 0
KASU 232130Z 23010KT 26/M02 A2995 RMK A01 T02611023  RH  015%=      5-min Rain = 0
KASU 232135Z 25011G17KT 26/M02 A2995 RMK A01 T02611022  RH  015%=      5-min Rain = 0
KASU 232140Z 24010G16KT 26/M02 A2995 RMK A01 T02611020  RH  016%=      5-min Rain = 0
KASU 232145Z 26009G14KT 26/M03 A2995 RMK A01 T02581027  RH  015%=      5-min Rain = 0
KASU 232150Z 26010KT 26/M03 A2995 RMK A01 T02581032  RH  015%=      5-min Rain = 0
KASU 232155Z 24010KT 26/M04 A2995 RMK A01 T02561038  RH  014%=      5-min Rain = 0
KASU 232200Z 25010KT 26/M04 A2995 RMK A01 T02551040  RH  014%=      5-min Rain = 0
KASU 232205Z 26010KT 25/M03 A2996 RMK A01 T02541031  RH  015%=      5-min Rain = 0
KASU 232210Z 26010KT 25/M04 A2996 RMK A01 T02521037  RH  015%=      5-min Rain = 0
KASU 232215Z 27010KT 25/M04 A2996 RMK A01 T02521035  RH  015%=      5-min Rain = 0
KASU 232220Z 25008KT 25/M03 A2996 RMK A01 T02511030  RH  015%=      5-min Rain = 0
KASU 232225Z 25008KT 25/M02 A2996 RMK A01 T02531023  RH  016%=      5-min Rain = 0
KASU 232230Z 27007KT 26/00 A2996 RMK A01 T02600001  RH  018%=      5-min Rain = 0
KASU 232235Z 27008KT 26/M00 A2996 RMK A01 T02621003  RH  018%=      5-min Rain = 0
KASU 232240Z 27008KT 26/M00 A2996 RMK A01 T02611004  RH  018%=      5-min Rain = 0
KASU 232245Z 26009KT 26/M01 A2996 RMK A01 T02611006  RH  018%=      5-min Rain = 0
KASU 232250Z 27009KT 26/M01 A2996 RMK A01 T02581009  RH  017%=      5-min Rain = 0
KASU 232255Z 29009G14KT 25/M00 A2996 RMK A01 T02521004  RH  019%=      5-min Rain = 0
KASU 232300Z 29009KT 25/M01 A2996 RMK A01 T02471009  RH  019%=      5-min Rain = 0
KASU 232305Z 27008KT 25/M01 A2996 RMK A01 T02481005  RH  019%=      5-min Rain = 0
KASU 232310Z 27007KT 25/M01 A2996 RMK A01 T02471005  RH  019%=      5-min Rain = 0
KASU 232315Z 28005KT 25/01 A2996 RMK A01 T02460006  RH  021%=      5-min Rain = 0
KASU 232320Z 28005KT 25/01 A2996 RMK A01 T02480008  RH  021%=      5-min Rain = 0
KASU 232325Z 27006KT 25/01 A2996 RMK A01 T02510007  RH  020%=      5-min Rain = 0
KASU 232330Z 27007KT 26/00 A2996 RMK A01 T02560002  RH  019%=      5-min Rain = 0
KASU 232335Z 27007KT 25/M00 A2996 RMK A01 T02531001  RH  019%=      5-min Rain = 0
KASU 232340Z 26006KT 25/M00 A2996 RMK A01 T02491001  RH  020%=      5-min Rain = 0
KASU 232345Z 25006KT 25/M00 A2996 RMK A01 T02451001  RH  020%=      5-min Rain = 0
KASU 232350Z 26004KT 24/01 A2996 RMK A01 T02420008  RH  022%=      5-min Rain = 0
KASU 232355Z 26004KT 24/01 A2996 RMK A01 T02400010  RH  022%=      5-min Rain = 0
KASU 240000Z 25003KT 24/01 A2996 RMK A01 T02380011  RH  023%=      5-min Rain = 0
KASU 240005Z 23003KT 24/01 A2996 RMK A01 T02350014  RH  024%=      5-min Rain = 0
KASU 240010Z 22003G8KT 24/01 A2996 RMK A01 T02350012  RH  023%=      5-min Rain = 0
KASU 240015Z 22004KT 23/02 A2996 RMK A01 T02320016  RH  024%=      5-min Rain = 0
KASU 240020Z 22004KT 23/01 A2996 RMK A01 T02320006  RH  023%=      5-min Rain = 0
KASU 240025Z 23005KT 23/00 A2996 RMK A01 T02320004  RH  022%=      5-min Rain = 0
KASU 240030Z 23004KT 23/01 A2996 RMK A01 T02290005  RH  023%=      5-min Rain = 0
KASU 240035Z 23004KT 23/00 A2996 RMK A01 T02270001  RH  023%=      5-min Rain = 0
KASU 240040Z 23003KT 23/M00 A2996 RMK A01 T02251003  RH  022%=      5-min Rain = 0
KASU 240045Z 23003KT 22/M01 A2996 RMK A01 T02241007  RH  022%=      5-min Rain = 0
KASU 240050Z 22003KT 22/M01 A2995 RMK A01 T02241014  RH  021%=      5-min Rain = 0
KASU 240055Z 22003KT 22/M01 A2995 RMK A01 T02221014  RH  021%=      5-min Rain = 0
KASU 240100Z 23003KT 22/M01 A2995 RMK A01 T02191014  RH  021%=      5-min Rain = 0
KASU 240105Z 23003KT 22/M02 A2995 RMK A01 T02171020  RH  021%=      5-min Rain = 0
KASU 240110Z 23003KT 22/M02 A2995 RMK A01 T02161023  RH  020%=      5-min Rain = 0
KASU 240115Z 23002KT 21/M03 A2995 RMK A01 T02141025  RH  020%=      5-min Rain = 0
KASU 240120Z 22002KT 21/M03 A2995 RMK A01 T02111025  RH  020%=      5-min Rain = 0
KASU 240125Z 21002KT 21/M03 A2995 RMK A01 T02051026  RH  021%=      5-min Rain = 0
KASU 240130Z 22002KT 20/M03 A2995 RMK A01 T02001026  RH  022%=      5-min Rain = 0
KASU 240135Z 23002KT 20/M02 A2996 RMK A01 T02001024  RH  022%=      5-min Rain = 0
KASU 240140Z 23001KT 20/M01 A2996 RMK A01 T01951009  RH  025%=      5-min Rain = 0
KASU 240145Z 25002KT 19/M01 A2996 RMK A01 T01931014  RH  025%=      5-min Rain = 0
KASU 240150Z 26001KT 19/M02 A2996 RMK A01 T01941015  RH  025%=      5-min Rain = 0
KASU 240155Z 28002KT 20/M02 A2996 RMK A01 T01951020  RH  024%=      5-min Rain = 0
KASU 240200Z 28002KT 19/M02 A2996 RMK A01 T01941015  RH  024%=      5-min Rain = 0
KASU 240205Z 30002KT 18/00 A2996 RMK A01 T01810003  RH  031%=      5-min Rain = 0
KASU 240210Z 31003KT 17/01 A2996 RMK A01 T01730007  RH  033%=      5-min Rain = 0
KASU 240215Z 32004KT 16/02 A2996 RMK A01 T01600021  RH  040%=      5-min Rain = 0
KASU 240220Z 32004KT 15/02 A2997 RMK A01 T01510020  RH  042%=      5-min Rain = 0
KASU 240225Z 32004KT 16/01 A2997 RMK A01 T01590011  RH  037%=      5-min Rain = 0
KASU 240230Z 32004KT 15/02 A2997 RMK A01 T01530018  RH  041%=      5-min Rain = 0
KASU 240235Z 33003KT 15/02 A2997 RMK A01 T01520017  RH  041%=      5-min Rain = 0
KASU 240240Z 34004KT 16/02 A2997 RMK A01 T01600015  RH  038%=      5-min Rain = 0
KASU 240245Z 33004KT 15/02 A2997 RMK A01 T01500024  RH  043%=      5-min Rain = 0
KASU 240250Z 33004KT 14/03 A2997 RMK A01 T01410026  RH  047%=      5-min Rain = 0
KASU 240255Z 33004KT 14/03 A2997 RMK A01 T01440026  RH  046%=      5-min Rain = 0
KASU 240300Z 34004KT 14/03 A2998 RMK A01 T01440026  RH  046%=      5-min Rain = 0
KASU 240305Z 34004KT 14/03 A2998 RMK A01 T01360032  RH  050%=      5-min Rain = 0
KASU 240310Z 35002KT 13/03 A2998 RMK A01 T01330033  RH  051%=      5-min Rain = 0
KASU 240315Z 35000KT 13/03 A2999 RMK A01 T01340030  RH  050%=      5-min Rain = 0
KASU 240320Z 00000KT 14/03 A2999 RMK A01 T01350031  RH  050%=      5-min Rain = 0
KASU 240325Z 23000KT 13/03 A2999 RMK A01 T01320026  RH  050%=      5-min Rain = 0
KASU 240330Z 23000KT 13/03 A2999 RMK A01 T01310025  RH  049%=      5-min Rain = 0
KASU 240335Z 21000KT 13/03 A30 RMK A01 T01330029  RH  050%=      5-min Rain = 0
KASU 240340Z 19003KT 13/03 A30 RMK A01 T01290026  RH  050%=      5-min Rain = 0
KASU 240345Z 19003KT 13/03 A30 RMK A01 T01260029  RH  053%=      5-min Rain = 0
KASU 240350Z 19004KT 13/02 A3001 RMK A01 T01290018  RH  048%=      5-min Rain = 0
KASU 240355Z 22002KT 13/02 A3001 RMK A01 T01310016  RH  046%=      5-min Rain = 0
KASU 240400Z 23002KT 13/02 A3001 RMK A01 T01310020  RH  048%=      5-min Rain = 0
KASU 240405Z 19002KT 13/02 A3002 RMK A01 T01300015  RH  046%=      5-min Rain = 0
KASU 240410Z 14005KT 12/00 A3003 RMK A01 T01220004  RH  045%=      5-min Rain = 0
KASU 240415Z 13003KT 12/00 A3003 RMK A01 T01220002  RH  044%=      5-min Rain = 0
KASU 240420Z 16002KT 12/01 A3003 RMK A01 T01190007  RH  047%=      5-min Rain = 0
KASU 240425Z 18003KT 12/01 A3003 RMK A01 T01170010  RH  048%=      5-min Rain = 0
KASU 240430Z 19003KT 12/01 A3003 RMK A01 T01220006  RH  046%=      5-min Rain = 0
KASU 240435Z 17002KT 13/01 A3004 RMK A01 T01280005  RH  043%=      5-min Rain = 0
KASU 240440Z 17003KT 13/01 A3004 RMK A01 T01320006  RH  043%=      5-min Rain = 0
KASU 240445Z 16004KT 14/02 A3004 RMK A01 T01370015  RH  044%=      5-min Rain = 0
KASU 240450Z 16005KT 14/03 A3004 RMK A01 T01400026  RH  047%=      5-min Rain = 0
KASU 240455Z 17007KT 15/07 A3004 RMK A01 T01500066  RH  059%=      5-min Rain = 0

Page generated in 0.0091 seconds.